HELX 
Luxor International Airport
Luxor, Egypt 
ICAOIATAStatus
HELXLXROperational
LatitudeLongitude
25° 40' 15" N32° 42' 23" E
25.67100032.706600
Local Time (DST+2)UTC (GMT+2)
04-23-2014 06:56 pm04-23-2014 16:56
Sunrise-SunsetLocalUTC
Begin Civil Twilight04:53 am02:53
Sunrise05:17 am03:17
Sunset06:17 pm16:17
End Civil Twilight06:41 pm16:41

Current Weather

METARObservedFlight Conditions

HELX 231600Z 02003KT CAVOK 36/11 Q1008 NOSIG

Wed, Apr 23, 2014 @ 16:00 UTC(Z)

(56 Minutes ago)

VFR

(Visual Flight Rules)

WindVisibilityCloudsConditions
020° at 3 knots (6 kph)
10 km or more
  • Clear skies
  • No significant weather
TemperaturesReadingsPrecipitation
Current Temp36°C (97°F)
Dewpoint11°C (52°F)
Humidity22%
Altimeter29.76"Hg
Sea Level Pressure1008mb
Field Elevation288.71'
None Recorded

Forecast Weather

TAF

TAF HELX 231100Z 2312/2418 31005KT CAVOK

FromTo
Wed, Apr 23, 2014 @ 12:00 UTC(Z) Thu, Apr 24, 2014 @ 18:00 UTC(Z)
WindVisibilityCloudsConditions
310° at 5 knots (9 kph)
10 km or more
  • No significant weather

Previous 24 hour Weather Graphs

  Loading...

CheckWX.com is intended as a tool to help pilots better visualize weather data.   It is not intended as a substitute for an official weather briefing obtained from a Flight Service Station.
CheckWX.com does not meet the FAA requirements for an official pre-flight weather briefing.   Therefore, it's important that pilots still call and obtain an official FSS pre-flight weather briefing.